Time;durP1;ratioP1;P1;durP2;ratioP2;P2;SDS_P1;SDS_P2;PMS_P1;PMS_P2;Temp;Humidity;BMP_temperature;BMP_pressure;BME280_temperature;BME280_humidity;BME280_pressure;Samples;Min_cycle;Max_cycle;Signal;HPM_P1;HPM_P2
2022/08/19 00:01:31;;;;;;;16.30;14.37;;;23.50;1.00;;;;;;5084829;28;20409;-75
2022/08/19 00:03:59;;;;;;;19.10;15.27;;;23.50;1.00;;;;;;5080417;28;20542;-76
2022/08/19 00:06:25;;;;;;;18.37;14.80;;;23.40;1.00;;;;;;5084790;28;20434;-76
2022/08/19 00:08:51;;;;;;;17.67;14.33;;;23.50;1.00;;;;;;5088340;28;20985;-75
2022/08/19 00:11:17;;;;;;;19.50;15.37;;;23.50;1.00;;;;;;5085795;28;20453;-75
2022/08/19 00:13:45;;;;;;;19.23;15.73;;;23.40;1.00;;;;;;5083072;28;20912;-76
2022/08/19 00:16:11;;;;;;;18.43;15.07;;;23.40;1.00;;;;;;5088174;28;20425;-75
2022/08/19 00:18:36;;;;;;;21.33;14.90;;;23.40;1.00;;;;;;5089929;28;20417;-75
2022/08/19 00:21:02;;;;;;;21.40;14.83;;;23.30;1.00;;;;;;5089455;28;20163;-75
2022/08/19 00:23:28;;;;;;;19.33;15.13;;;23.30;1.00;;;;;;5089888;28;20619;-75
2022/08/19 00:25:54;;;;;;;20.20;16.10;;;23.30;1.00;;;;;;5092390;28;20428;-76
2022/08/19 00:28:20;;;;;;;24.17;15.73;;;23.20;1.00;;;;;;5085567;28;20681;-75
2022/08/19 00:30:46;;;;;;;21.43;15.90;;;23.20;1.00;;;;;;5079696;28;20269;-76
2022/08/19 00:33:11;;;;;;;20.67;15.23;;;23.20;1.00;;;;;;5085860;28;20889;-75
2022/08/19 00:35:38;;;;;;;22.63;15.20;;;23.20;1.00;;;;;;5083760;28;20164;-75
2022/08/19 00:38:06;;;;;;;21.10;15.73;;;23.10;1.00;;;;;;5086159;28;20535;-75
2022/08/19 00:40:32;;;;;;;21.77;15.93;;;23.10;1.00;;;;;;5090754;28;20417;-75
2022/08/19 00:42:57;;;;;;;21.63;15.37;;;23.00;1.00;;;;;;5085822;28;20433;-75
2022/08/19 00:45:26;;;;;;;19.70;15.93;;;23.00;1.00;;;;;;5083783;28;20440;-75
2022/08/19 00:47:52;;;;;;;20.23;15.40;;;22.90;1.00;;;;;;5095114;28;20205;-76
2022/08/19 00:50:19;;;;;;;22.07;15.73;;;23.00;1.00;;;;;;5086629;28;20472;-75
2022/08/19 00:52:48;;;;;;;26.27;16.00;;;23.00;1.00;;;;;;5091195;28;20792;-76
2022/08/19 00:55:19;;;;;;;18.90;15.13;;;22.90;1.00;;;;;;5092725;28;21151;-76
2022/08/19 00:58:01;;;;;;;20.83;16.47;;;22.80;1.00;;;;;;5089854;28;20785;-75
2022/08/19 01:00:28;;;;;;;22.10;15.60;;;22.80;1.00;;;;;;5079033;28;20437;-75
2022/08/19 01:02:54;;;;;;;22.43;16.83;;;22.70;1.00;;;;;;5088088;28;20429;-75
2022/08/19 01:05:27;;;;;;;23.87;15.40;;;22.60;1.00;;;;;;5088565;28;20450;-75
2022/08/19 01:07:53;;;;;;;21.00;15.60;;;22.60;1.00;;;;;;5089641;28;20726;-75
2022/08/19 01:10:24;;;;;;;21.17;16.43;;;22.60;1.00;;;;;;5082841;28;20449;-75
2022/08/19 01:12:52;;;;;;;22.57;17.50;;;22.60;1.00;;;;;;5084216;28;20773;-75
2022/08/19 01:15:24;;;;;;;20.57;16.13;;;22.60;1.00;;;;;;5083286;28;20425;-74
2022/08/19 01:17:50;;;;;;;22.53;16.87;;;22.60;1.00;;;;;;5089168;28;20405;-75
2022/08/19 01:20:20;;;;;;;22.37;17.13;;;22.50;1.00;;;;;;5084705;28;20453;-75
2022/08/19 01:22:58;;;;;;;22.67;15.93;;;22.40;1.00;;;;;;5085019;28;20506;-75
2022/08/19 01:25:31;;;;;;;20.13;15.70;;;22.40;1.00;;;;;;5092627;28;20416;-75
2022/08/19 01:27:57;;;;;;;25.27;17.53;;;22.50;1.00;;;;;;5093427;28;21104;-75
2022/08/19 01:30:30;;;;;;;23.20;16.17;;;22.50;1.00;;;;;;5080267;28;20444;-75
2022/08/19 01:32:56;;;;;;;29.63;17.90;;;22.50;1.00;;;;;;5078573;28;20243;-75
2022/08/19 01:35:24;;;;;;;21.90;17.30;;;22.50;1.00;;;;;;5084510;28;20420;-75
2022/08/19 01:37:54;;;;;;;27.17;19.93;;;22.50;1.00;;;;;;5087222;28;20452;-75
2022/08/19 01:40:23;;;;;;;23.70;18.00;;;22.50;1.00;;;;;;5088800;28;20964;-75
2022/08/19 01:42:49;;;;;;;24.60;18.70;;;22.50;1.00;;;;;;5086938;28;20453;-75
2022/08/19 01:45:16;;;;;;;26.40;19.10;;;22.50;1.00;;;;;;5086637;28;20444;-75
2022/08/19 01:47:42;;;;;;;23.70;19.40;;;22.50;1.00;;;;;;5085205;28;21242;-75
2022/08/19 01:50:09;;;;;;;24.73;18.77;;;22.50;1.00;;;;;;5085250;28;20428;-75
2022/08/19 01:52:37;;;;;;;27.33;20.57;;;22.50;1.00;;;;;;5083775;28;20566;-75
2022/08/19 01:55:05;;;;;;;25.67;20.07;;;22.60;1.00;;;;;;5080805;28;20455;-75
2022/08/19 01:57:31;;;;;;;24.67;18.60;;;22.60;1.00;;;;;;5089133;28;20517;-75
2022/08/19 01:59:56;;;;;;;28.37;19.20;;;22.50;1.00;;;;;;5076869;28;20863;-75
2022/08/19 02:02:22;;;;;;;23.30;17.03;;;22.50;1.00;;;;;;5083893;28;20199;-74
2022/08/19 02:04:48;;;;;;;24.03;17.60;;;22.50;1.00;;;;;;5083756;28;20182;-75
2022/08/19 02:07:14;;;;;;;21.80;18.27;;;22.40;1.00;;;;;;5089669;28;20273;-75
2022/08/19 02:09:39;;;;;;;24.43;19.17;;;22.40;1.00;;;;;;5083544;28;20194;-76
2022/08/19 02:12:07;;;;;;;23.03;18.03;;;22.40;1.00;;;;;;5087915;28;20178;-75
2022/08/19 02:14:34;;;;;;;24.43;18.63;;;22.40;1.00;;;;;;5086467;28;20590;-75
2022/08/19 02:17:00;;;;;;;23.50;18.40;;;22.40;1.00;;;;;;5080335;28;20539;-76
2022/08/19 02:19:25;;;;;;;24.97;19.00;;;22.40;1.00;;;;;;5086277;28;20586;-75
2022/08/19 02:21:51;;;;;;;24.17;19.00;;;22.40;1.00;;;;;;5089126;28;20666;-75
2022/08/19 02:24:16;;;;;;;25.13;18.30;;;22.40;1.00;;;;;;5087932;28;20290;-75
2022/08/19 02:26:42;;;;;;;22.63;17.30;;;22.40;1.00;;;;;;5089186;28;20638;-75
2022/08/19 02:29:07;;;;;;;25.03;17.83;;;22.40;1.00;;;;;;5086529;28;20204;-75
2022/08/19 02:31:33;;;;;;;24.00;18.03;;;22.30;1.00;;;;;;5088265;28;20179;-75
2022/08/19 02:33:59;;;;;;;25.20;18.70;;;22.40;1.00;;;;;;5088535;28;20209;-75
2022/08/19 02:36:25;;;;;;;24.90;19.73;;;22.40;1.00;;;;;;5092831;28;20541;-75
2022/08/19 02:38:51;;;;;;;25.37;19.20;;;22.60;1.00;;;;;;5086294;28;20252;-75
2022/08/19 02:41:26;;;;;;;26.10;19.20;;;22.50;1.00;;;;;;5092413;28;20925;-75
2022/08/19 02:43:52;;;;;;;25.93;19.67;;;22.60;1.00;;;;;;5088727;28;20213;-75
2022/08/19 02:46:28;;;;;;;26.47;19.80;;;22.40;1.00;;;;;;5092268;28;20413;-76
2022/08/19 02:48:56;;;;;;;23.70;19.17;;;22.40;1.00;;;;;;5088182;28;20281;-75
2022/08/19 02:51:29;;;;;;;26.70;18.73;;;22.40;1.00;;;;;;5086237;28;20429;-76
2022/08/19 02:53:54;;;;;;;25.23;20.80;;;22.40;1.00;;;;;;5091548;28;20438;-76
2022/08/19 02:56:20;;;;;;;23.47;19.20;;;22.30;1.00;;;;;;5087112;28;20503;-75
2022/08/19 02:58:48;;;;;;;28.03;21.17;;;22.30;1.00;;;;;;5096185;28;20194;-75
2022/08/19 03:01:26;;;;;;;28.47;20.63;;;22.30;1.00;;;;;;5083699;28;21004;-75
2022/08/19 03:03:53;;;;;;;25.23;20.07;;;22.30;1.00;;;;;;5084805;28;20453;-75
2022/08/19 03:06:19;;;;;;;27.90;19.90;;;22.20;1.00;;;;;;5090535;28;20417;-75
2022/08/19 03:08:49;;;;;;;25.47;20.27;;;22.30;1.00;;;;;;5081627;28;20475;-75
2022/08/19 03:11:21;;;;;;;30.50;21.00;;;22.30;1.00;;;;;;5089934;28;20429;-75
2022/08/19 03:13:51;;;;;;;25.60;20.70;;;22.30;1.00;;;;;;5093258;28;20942;-75
2022/08/19 03:16:18;;;;;;;24.87;18.63;;;22.30;1.00;;;;;;5089837;28;20915;-75
2022/08/19 03:18:44;;;;;;;28.13;20.40;;;22.30;1.00;;;;;;5099994;28;20962;-75
2022/08/19 03:21:18;;;;;;;30.30;19.43;;;22.30;1.00;;;;;;5097664;28;20429;-75
2022/08/19 03:23:44;;;;;;;26.67;19.77;;;22.30;1.00;;;;;;5091066;28;20440;-75
2022/08/19 03:26:09;;;;;;;27.47;22.10;;;22.30;1.00;;;;;;5093495;28;20475;-76
2022/08/19 03:28:36;;;;;;;26.17;20.63;;;22.30;1.00;;;;;;5105256;28;20452;-75
2022/08/19 03:31:06;;;;;;;27.77;21.30;;;22.30;1.00;;;;;;5084905;28;20171;-75
2022/08/19 03:33:32;;;;;;;25.23;20.70;;;22.20;1.00;;;;;;5083115;28;20434;-75
2022/08/19 03:36:05;;;;;;;25.37;21.27;;;22.20;1.00;;;;;;5086753;28;20914;-76
2022/08/19 03:38:32;;;;;;;28.27;21.70;;;22.20;1.00;;;;;;5084538;28;21005;-75
2022/08/19 03:40:57;;;;;;;26.23;21.00;;;22.20;1.00;;;;;;5089575;28;20425;-76
2022/08/19 03:43:23;;;;;;;29.67;21.93;;;22.20;1.00;;;;;;5090178;28;20997;-76
2022/08/19 03:45:49;;;;;;;26.43;21.40;;;22.20;1.00;;;;;;5090443;28;20183;-76
2022/08/19 03:48:17;;;;;;;29.73;22.37;;;22.10;1.00;;;;;;5084605;28;20199;-76
2022/08/19 03:50:42;;;;;;;25.27;20.93;;;22.00;1.00;;;;;;5090770;28;20401;-75
2022/08/19 03:53:08;;;;;;;25.53;21.27;;;21.90;1.00;;;;;;5089033;28;20453;-76
2022/08/19 03:55:38;;;;;;;25.97;21.07;;;21.90;1.00;;;;;;5086790;28;20167;-76
2022/08/19 03:58:04;;;;;;;26.20;22.00;;;21.90;1.00;;;;;;5089009;28;20171;-76
2022/08/19 04:00:29;;;;;;;28.93;21.63;;;21.90;1.00;;;;;;5082193;28;20448;-77
2022/08/19 04:02:55;;;;;;;28.87;22.77;;;21.90;1.00;;;;;;5082167;28;20234;-76
2022/08/19 04:05:20;;;;;;;29.50;22.80;;;21.80;1.00;;;;;;5085685;28;20198;-76
2022/08/19 04:07:46;;;;;;;28.33;22.30;;;21.80;1.00;;;;;;5088152;28;20202;-76
2022/08/19 04:10:11;;;;;;;26.40;22.30;;;21.80;1.00;;;;;;5088385;28;20634;-76
2022/08/19 04:12:37;;;;;;;28.17;22.40;;;21.80;1.00;;;;;;5085076;28;20199;-76
2022/08/19 04:15:03;;;;;;;26.67;21.70;;;21.90;1.00;;;;;;5090749;28;20659;-76
2022/08/19 04:17:29;;;;;;;30.27;20.97;;;21.90;1.00;;;;;;5088287;28;20175;-76
2022/08/19 04:19:55;;;;;;;28.40;23.37;;;21.90;1.00;;;;;;5090656;28;20411;-76
2022/08/19 04:22:21;;;;;;;27.80;21.90;;;;;;;;;;5088247;28;20190;-75
2022/08/19 04:24:46;;;;;;;25.53;22.37;;;21.80;1.00;;;;;;5091618;28;20751;-75
2022/08/19 04:27:12;;;;;;;27.67;21.90;;;21.80;1.00;;;;;;5101741;28;20231;-76
2022/08/19 04:29:39;;;;;;;25.73;22.30;;;21.80;1.00;;;;;;5084644;28;20646;-76
2022/08/19 04:32:05;;;;;;;25.40;21.50;;;21.80;1.00;;;;;;5079000;28;20491;-76
2022/08/19 04:34:31;;;;;;;29.97;22.20;;;21.80;1.00;;;;;;5089501;28;20926;-76
2022/08/19 04:36:58;;;;;;;30.00;22.53;;;21.80;1.00;;;;;;5081933;28;20500;-75
2022/08/19 04:45:05;;;;;;;29.40;23.13;;;21.80;1.00;;;;;;5070849;28;20805;-75
2022/08/19 04:47:32;;;;;;;28.27;22.57;;;21.80;1.00;;;;;;5083586;28;20464;-75
2022/08/19 04:49:58;;;;;;;29.17;23.60;;;21.80;1.00;;;;;;5089959;28;20416;-75
2022/08/19 04:52:23;;;;;;;30.57;23.37;;;21.80;1.00;;;;;;5089765;28;20429;-75
2022/08/19 04:54:49;;;;;;;27.80;21.67;;;21.80;1.00;;;;;;5088924;28;20186;-76
2022/08/19 04:57:15;;;;;;;31.47;23.43;;;21.90;1.00;;;;;;5082997;28;20541;-76
2022/08/19 04:59:40;;;;;;;28.33;22.40;;;21.90;1.00;;;;;;5081393;28;20560;-75
2022/08/19 05:02:08;;;;;;;27.07;23.43;;;21.90;1.00;;;;;;5088825;28;20195;-75
2022/08/19 05:04:35;;;;;;;31.10;23.23;;;22.00;1.00;;;;;;5088452;28;20179;-75
2022/08/19 05:07:01;;;;;;;30.33;23.63;;;22.00;1.00;;;;;;5073509;28;21032;-75
2022/08/19 05:09:27;;;;;;;32.23;23.20;;;22.00;1.00;;;;;;5086667;28;20536;-75
2022/08/19 05:11:53;;;;;;;28.57;22.20;;;22.00;1.00;;;;;;5089800;28;20202;-75
2022/08/19 05:14:20;;;;;;;28.60;22.53;;;22.00;1.00;;;;;;5086656;28;20194;-75
2022/08/19 05:16:46;;;;;;;28.33;22.47;;;22.00;1.00;;;;;;5087527;28;20778;-76
2022/08/19 05:24:41;;;;;;;29.23;22.03;;;22.40;1.00;;;;;;5082826;28;20413;-75
2022/08/19 05:27:07;;;;;;;27.50;21.37;;;22.10;1.00;;;;;;5092961;28;20540;-76
2022/08/19 05:29:36;;;;;;;28.07;22.70;;;22.10;1.00;;;;;;5081196;28;21045;-77
2022/08/19 05:32:04;;;;;;;31.13;22.87;;;22.10;1.00;;;;;;5078391;28;20557;-75
2022/08/19 05:34:32;;;;;;;32.57;22.97;;;22.20;1.00;;;;;;5077528;28;20440;-75
2022/08/19 05:36:59;;;;;;;28.33;22.47;;;22.20;1.00;;;;;;5086273;28;20452;-76
2022/08/19 05:39:27;;;;;;;28.87;22.73;;;22.30;1.00;;;;;;5089117;28;20757;-76
2022/08/19 05:41:58;;;;;;;29.10;21.03;;;22.40;1.00;;;;;;5074889;28;20430;-75
2022/08/19 05:44:32;;;;;;;27.57;21.43;;;22.50;1.00;;;;;;5089425;28;20710;-76
2022/08/19 05:46:59;;;;;;;29.33;21.63;;;22.60;1.00;;;;;;5083620;28;20468;-75
2022/08/19 05:49:26;;;;;;;30.97;21.60;;;22.60;1.00;;;;;;5089309;28;20955;-76
2022/08/19 05:51:52;;;;;;;30.53;23.00;;;22.70;1.00;;;;;;5086239;28;20429;-76
2022/08/19 05:54:19;;;;;;;33.67;22.27;;;22.70;1.00;;;;;;5078480;28;20453;-75
2022/08/19 05:56:47;;;;;;;28.30;22.57;;;22.80;1.00;;;;;;5091001;28;20413;-75
2022/08/19 05:59:14;;;;;;;29.53;22.20;;;22.80;1.00;;;;;;5091208;28;20927;-74
2022/08/19 06:01:42;;;;;;;27.40;22.30;;;22.80;1.00;;;;;;5089337;28;20965;-76
2022/08/19 06:04:08;;;;;;;27.50;21.60;;;22.90;1.00;;;;;;5083619;28;20618;-76
2022/08/19 06:06:35;;;;;;;27.43;22.00;;;23.00;1.00;;;;;;5074685;28;20480;-75
2022/08/19 06:09:05;;;;;;;25.90;20.30;;;23.00;1.00;;;;;;5079887;28;20258;-80
2022/08/19 06:11:47;;;;;;;25.03;20.10;;;23.00;1.00;;;;;;5087388;28;20417;-76
2022/08/19 06:14:17;;;;;;;31.50;22.40;;;23.20;1.00;;;;;;5083757;28;20470;-75
2022/08/19 06:16:44;;;;;;;26.23;20.83;;;23.30;1.00;;;;;;5090757;28;20557;-75
2022/08/19 06:19:13;;;;;;;24.63;20.70;;;23.40;1.00;;;;;;5090033;28;20447;-76
2022/08/19 06:21:41;;;;;;;28.43;22.20;;;23.40;1.00;;;;;;5088977;28;20414;-75
2022/08/19 06:24:10;;;;;;;29.97;20.90;;;23.40;1.00;;;;;;5090229;28;20437;-73
2022/08/19 06:26:38;;;;;;;26.10;20.47;;;23.50;1.00;;;;;;5088882;28;20420;-73
2022/08/19 06:29:06;;;;;;;25.20;20.20;;;23.60;1.00;;;;;;5090434;28;20989;-74
2022/08/19 06:31:33;;;;;;;29.70;19.90;;;23.60;1.00;;;;;;5083304;28;20460;-75
2022/08/19 06:34:02;;;;;;;31.17;19.83;;;23.60;1.00;;;;;;5083762;28;20834;-76
2022/08/19 06:36:33;;;;;;;27.33;19.20;;;23.70;1.00;;;;;;5090688;28;20563;-77
2022/08/19 06:39:05;;;;;;;22.77;19.20;;;23.80;1.00;;;;;;5091590;28;21002;-76
2022/08/19 06:41:33;;;;;;;27.53;19.90;;;24.00;1.00;;;;;;5088894;28;20445;-75
2022/08/19 06:43:59;;;;;;;22.97;19.37;;;24.10;1.00;;;;;;5088507;28;20432;-76
2022/08/19 06:46:26;;;;;;;22.47;17.60;;;24.30;1.00;;;;;;5078918;28;20484;-73
2022/08/19 06:48:53;;;;;;;26.13;17.73;;;24.40;1.00;;;;;;5086951;28;20199;-75
2022/08/19 06:51:20;;;;;;;18.90;16.40;;;24.50;1.00;;;;;;5085102;28;20484;-76
2022/08/19 06:53:50;;;;;;;21.07;17.80;;;24.60;1.00;;;;;;5079498;28;20453;-76
2022/08/19 06:56:18;;;;;;;19.17;17.10;;;24.80;1.00;;;;;;5088274;28;20440;-76
2022/08/19 06:58:46;;;;;;;20.50;16.60;;;25.00;1.00;;;;;;5084548;28;20441;-76
2022/08/19 07:01:11;;;;;;;20.93;17.40;;;25.10;1.00;;;;;;5090628;28;20495;-76
2022/08/19 07:03:38;;;;;;;20.53;16.50;;;25.20;1.00;;;;;;5084541;28;20448;-76
2022/08/19 07:06:12;;;;;;;21.97;16.33;;;25.30;1.00;;;;;;5089287;28;20619;-76
2022/08/19 07:08:40;;;;;;;19.00;16.27;;;25.30;1.00;;;;;;5084703;28;20486;-76
2022/08/19 07:11:08;;;;;;;18.00;15.80;;;25.40;1.00;;;;;;5095572;28;20466;-76
2022/08/19 07:13:37;;;;;;;19.40;17.00;;;25.40;1.00;;;;;;5097834;28;20486;-76
2022/08/19 07:16:13;;;;;;;20.20;17.30;;;25.30;1.00;;;;;;5102354;28;20461;-76
2022/08/19 07:18:39;;;;;;;20.40;17.00;;;25.40;1.00;;;;;;5086047;28;20447;-76
2022/08/19 07:21:14;;;;;;;21.60;16.70;;;25.30;1.00;;;;;;5090814;28;20425;-76
2022/08/19 07:23:40;;;;;;;21.73;16.77;;;25.40;1.00;;;;;;5086533;28;20630;-76
2022/08/19 07:26:19;;;;;;;18.13;15.87;;;25.50;1.00;;;;;;5097950;28;20400;-76
2022/08/19 07:28:46;;;;;;;20.20;16.50;;;25.60;1.00;;;;;;5093295;28;20445;-76
2022/08/19 07:31:14;;;;;;;18.80;15.47;;;25.80;1.00;;;;;;5086158;28;20668;-76
2022/08/19 07:33:40;;;;;;;21.40;16.50;;;25.70;1.00;;;;;;5088369;28;20873;-76
2022/08/19 07:36:07;;;;;;;17.93;15.83;;;25.60;1.00;;;;;;5083089;28;20425;-76
2022/08/19 07:38:34;;;;;;;18.17;14.63;;;25.60;1.00;;;;;;5088917;28;20486;-76
2022/08/19 07:41:00;;;;;;;23.00;16.33;;;25.50;1.00;;;;;;5079538;28;20431;-75
2022/08/19 07:43:27;;;;;;;16.73;14.80;;;25.70;1.00;;;;;;5080196;28;20441;-77
2022/08/19 07:45:56;;;;;;;22.17;15.03;;;25.50;1.00;;;;;;5082772;28;20444;-76
2022/08/19 07:48:25;;;;;;;19.83;15.20;;;25.50;1.00;;;;;;5089718;28;20453;-76
2022/08/19 07:50:54;;;;;;;18.60;15.47;;;25.60;1.00;;;;;;5083525;28;20424;-77
2022/08/19 07:53:24;;;;;;;18.70;14.90;;;25.60;1.00;;;;;;5075474;28;20502;-76
2022/08/19 07:55:51;;;;;;;18.97;14.57;;;25.90;1.00;;;;;;5087949;28;20726;-76
2022/08/19 07:58:20;;;;;;;20.70;13.90;;;25.80;1.00;;;;;;5091336;28;20490;-76
2022/08/19 08:00:48;;;;;;;19.40;14.97;;;25.80;1.00;;;;;;5086553;28;20430;-76
2022/08/19 08:03:15;;;;;;;17.43;14.80;;;26.00;1.00;;;;;;5087752;28;20803;-76
2022/08/19 08:11:11;;;;;;;16.90;13.57;;;26.10;1.00;;;;;;5082508;28;20796;-76
2022/08/19 08:13:37;;;;;;;18.57;13.13;;;26.20;1.00;;;;;;5089363;28;20518;-76
2022/08/19 08:16:02;;;;;;;16.87;14.10;;;26.40;1.00;;;;;;5082677;28;20433;-76
2022/08/19 08:18:28;;;;;;;18.07;13.60;;;26.50;1.00;;;;;;5086530;28;20171;-76
2022/08/19 08:20:55;;;;;;;15.10;13.50;;;26.70;1.00;;;;;;5078915;28;20214;-76
2022/08/19 08:23:29;;;;;;;16.30;12.80;;;27.30;1.00;;;;;;5090568;28;20807;-75
2022/08/19 08:25:57;;;;;;;17.60;12.87;;;28.60;1.00;;;;;;5082161;28;20221;-76
2022/08/19 08:28:23;;;;;;;13.20;11.70;;;29.90;1.00;;;;;;5089297;28;20199;-76
2022/08/19 08:30:49;;;;;;;18.23;12.65;;;30.70;1.00;;;;;;5083251;28;20258;-76
2022/08/19 08:33:21;;;;;;;18.60;10.40;;;31.40;1.00;;;;;;5087495;28;20211;-76
2022/08/19 08:35:47;;;;;;;15.68;11.63;;;31.90;1.00;;;;;;5081151;28;20186;-76
2022/08/19 08:38:13;;;;;;;12.25;10.95;;;32.30;1.00;;;;;;5090813;28;20171;-77
2022/08/19 08:40:41;;;;;;;11.90;10.68;;;32.40;1.00;;;;;;5081773;28;20668;-77
2022/08/19 08:43:17;;;;;;;10.68;9.57;;;32.50;1.00;;;;;;5081530;28;20272;-76
2022/08/19 08:45:54;;;;;;;13.07;9.80;;;32.50;1.00;;;;;;5075432;28;20360;-77
2022/08/19 08:48:35;;;;;;;10.93;9.82;;;33.00;1.00;;;;;;5087676;28;20207;-77
2022/08/19 08:51:05;;;;;;;13.13;9.20;;;32.90;1.00;;;;;;5078051;28;20195;-76
2022/08/19 08:53:32;;;;;;;9.98;8.82;;;33.50;1.00;;;;;;5076984;28;20207;-77
2022/08/19 08:56:01;;;;;;;10.23;8.95;;;34.40;1.00;;;;;;5080841;28;20190;-77
2022/08/19 08:58:51;;;;;;;8.93;8.02;;;35.30;1.00;;;;;;5089779;28;20239;-77
2022/08/19 09:01:16;;;;;;;8.02;7.22;;;36.10;1.00;;;;;;5085417;28;20179;-77
2022/08/19 09:03:45;;;;;;;11.43;7.63;;;36.60;1.00;;;;;;5081397;28;20570;-77
2022/08/19 09:06:28;;;;;;;9.80;7.30;;;36.80;1.00;;;;;;5084889;28;20183;-77
2022/08/19 09:09:24;;;;;;;9.57;7.65;;;37.20;1.00;;;;;;5088874;28;20264;-78
2022/08/19 09:11:56;;;;;;;9.90;7.75;;;37.80;1.00;;;;;;5079548;28;20175;-77
2022/08/19 09:14:37;;;;;;;8.73;6.95;;;38.00;1.00;;;;;;5080881;28;20195;-77
2022/08/19 09:17:07;;;;;;;7.78;6.70;;;38.30;1.00;;;;;;5078922;28;20179;-78
2022/08/19 09:19:34;;;;;;;8.35;6.22;;;38.30;1.00;;;;;;5081732;28;20200;-78
2022/08/19 09:22:00;;;;;;;7.10;5.93;;;38.60;1.00;;;;;;5078663;28;20171;-78
2022/08/19 09:24:26;;;;;;;12.75;6.60;;;38.90;1.00;;;;;;5081975;28;20206;-77
2022/08/19 09:26:52;;;;;;;7.10;6.30;;;38.80;1.00;;;;;;5093010;28;20193;-77
2022/08/19 09:29:17;;;;;;;10.73;6.93;;;38.60;1.00;;;;;;5086802;28;20233;-77
2022/08/19 09:31:43;;;;;;;7.45;6.70;;;38.40;1.00;;;;;;5085909;28;20258;-78
2022/08/19 09:34:08;;;;;;;8.77;6.97;;;38.80;1.00;;;;;;5093505;28;20191;-77
2022/08/19 09:36:35;;;;;;;7.68;6.70;;;38.80;1.00;;;;;;5083896;28;20215;-76
2022/08/19 09:39:03;;;;;;;6.78;5.82;;;39.40;1.00;;;;;;5082997;28;20175;-77
2022/08/19 09:41:29;;;;;;;7.55;6.38;;;39.70;1.00;;;;;;5089360;28;20186;-77
2022/08/19 09:43:56;;;;;;;14.05;6.35;;;39.90;1.00;;;;;;5092680;28;20199;-77
2022/08/19 09:46:25;;;;;;;7.20;6.50;;;40.00;1.00;;;;;;5086532;28;20183;-77
2022/08/19 09:48:52;;;;;;;7.68;6.18;;;40.10;1.00;;;;;;5081674;28;20191;-78
2022/08/19 09:51:28;;;;;;;8.30;5.80;;;40.60;1.00;;;;;;5086780;28;20693;-77
2022/08/19 09:53:54;;;;;;;8.15;6.72;;;40.70;1.00;;;;;;5085133;28;20231;-79
2022/08/19 09:56:21;;;;;;;7.95;6.40;;;39.70;1.00;;;;;;5089624;28;20171;-77
2022/08/19 09:58:48;;;;;;;7.55;6.10;;;38.80;1.00;;;;;;5085032;28;20673;-77
2022/08/19 10:01:23;;;;;;;6.45;5.78;;;38.50;1.00;;;;;;5097001;28;20473;-78
2022/08/19 10:03:51;;;;;;;6.65;5.95;;;39.10;1.00;;;;;;5095585;28;20288;-77
2022/08/19 10:06:17;;;;;;;8.95;5.50;;;38.90;1.00;;;;;;5092845;28;20657;-77
2022/08/19 10:08:43;;;;;;;8.80;5.68;;;39.00;1.00;;;;;;5087910;28;20210;-78
2022/08/19 10:11:09;;;;;;;5.88;5.28;;;39.30;1.00;;;;;;5089676;28;20178;-77
2022/08/19 10:13:36;;;;;;;6.32;5.70;;;38.30;1.00;;;;;;5091008;28;20187;-77
2022/08/19 10:16:06;;;;;;;8.23;6.50;;;37.10;1.00;;;;;;5088305;28;20519;-77
2022/08/19 10:18:33;;;;;;;8.35;6.20;;;36.20;1.00;;;;;;5086099;28;20180;-77
2022/08/19 10:21:08;;;;;;;8.10;6.25;;;36.60;1.00;;;;;;5086252;28;20191;-76
2022/08/19 10:23:39;;;;;;;6.90;6.10;;;36.40;1.00;;;;;;5088843;28;20229;-77
2022/08/19 10:26:06;;;;;;;7.43;6.65;;;36.30;1.00;;;;;;5092179;28;20182;-77
2022/08/19 10:28:36;;;;;;;8.80;6.47;;;37.80;1.00;;;;;;5085981;28;20226;-77
2022/08/19 10:31:07;;;;;;;8.65;6.63;;;38.80;1.00;;;;;;5075744;28;20611;-77
2022/08/19 10:33:34;;;;;;;8.05;6.38;;;39.70;1.00;;;;;;5085197;28;20660;-77
2022/08/19 10:36:02;;;;;;;8.93;6.85;;;39.60;1.00;;;;;;5080136;28;20164;-77
2022/08/19 10:38:28;;;;;;;6.50;5.90;;;39.10;1.00;;;;;;5089766;28;20186;-77
2022/08/19 10:40:54;;;;;;;7.50;6.70;;;39.80;1.00;;;;;;5087218;28;20523;-77
2022/08/19 10:43:19;;;;;;;6.97;5.82;;;40.30;1.00;;;;;;5092231;28;20229;-77
2022/08/19 10:45:56;;;;;;;6.50;5.80;;;40.30;1.00;;;;;;5082795;28;20645;-77
2022/08/19 10:48:21;;;;;;;6.75;5.43;;;39.80;1.00;;;;;;5084090;28;20203;-77
2022/08/19 10:53:31;;;;;;;8.23;6.40;;;37.10;1.00;;;;;;5084671;28;20202;-77
2022/08/19 10:58:41;;;;;;;10.38;7.00;;;37.50;1.00;;;;;;5096957;28;20218;-77
2022/08/19 11:01:07;;;;;;;7.15;5.80;;;37.20;1.00;;;;;;5078149;28;20175;-76
2022/08/19 11:03:32;;;;;;;11.63;5.75;;;37.40;1.00;;;;;;5077378;28;20214;-77
2022/08/19 11:06:06;;;;;;;7.15;5.90;;;38.70;1.00;;;;;;5084958;28;20210;-77
2022/08/19 11:08:33;;;;;;;9.18;5.55;;;40.10;1.00;;;;;;5085455;28;20583;-77
2022/08/19 11:11:00;;;;;;;6.65;5.63;;;41.60;1.00;;;;;;5089381;28;20219;-78
2022/08/19 11:13:39;;;;;;;9.75;6.03;;;42.60;1.00;;;;;;5085704;28;20192;-77
2022/08/19 11:16:14;;;;;;;7.35;5.80;;;42.30;1.00;;;;;;5082412;28;20321;-77
2022/08/19 11:18:43;;;;;;;7.25;6.07;;;41.50;1.00;;;;;;5085060;28;20657;-77
2022/08/19 11:21:19;;;;;;;10.05;6.63;;;41.40;1.00;;;;;;5080761;28;20198;-78
2022/08/19 11:23:45;;;;;;;7.35;6.30;;;41.70;1.00;;;;;;5082368;28;20188;-77
2022/08/19 11:26:12;;;;;;;7.20;5.93;;;42.60;1.00;;;;;;5088311;28;20210;-77
2022/08/19 11:28:38;;;;;;;8.45;6.28;;;43.00;1.00;;;;;;5088503;28;20199;-77
2022/08/19 11:31:04;;;;;;;9.07;6.45;;;42.90;1.00;;;;;;5086906;28;20167;-76
2022/08/19 11:33:30;;;;;;;7.05;6.40;;;42.90;1.00;;;;;;5081065;28;20217;-77
2022/08/19 11:36:00;;;;;;;7.78;7.00;;;42.30;1.00;;;;;;5088027;28;20171;-77
2022/08/19 11:38:26;;;;;;;8.07;7.28;;;41.70;1.00;;;;;;5086811;28;20189;-77
2022/08/19 11:41:01;;;;;;;7.90;7.20;;;40.20;1.00;;;;;;5086405;28;20183;-74
2022/08/19 11:43:28;;;;;;;12.65;7.68;;;38.10;1.00;;;;;;5079036;28;20198;-77
2022/08/19 11:45:55;;;;;;;8.73;7.90;;;36.50;1.00;;;;;;5078280;28;20176;-77
2022/08/19 11:48:21;;;;;;;9.77;8.82;;;35.20;1.00;;;;;;5086373;28;20217;-77
2022/08/19 11:50:57;;;;;;;10.48;8.52;;;35.40;1.00;;;;;;5089957;28;20258;-77
2022/08/19 11:53:23;;;;;;;8.73;7.60;;;37.60;1.00;;;;;;5083117;28;20256;-77
2022/08/19 11:55:49;;;;;;;9.02;8.13;;;39.30;1.00;;;;;;5086881;28;20179;-77
2022/08/19 11:58:17;;;;;;;8.95;7.88;;;40.30;1.00;;;;;;5085233;28;20187;-77
2022/08/19 12:00:44;;;;;;;8.88;7.93;;;41.30;1.00;;;;;;5083442;28;20197;-77
2022/08/19 12:03:11;;;;;;;12.63;8.05;;;41.10;1.00;;;;;;5076993;28;20233;-77
2022/08/19 12:05:39;;;;;;;11.48;8.55;;;40.50;1.00;;;;;;5088665;28;20549;-77
2022/08/19 12:08:06;;;;;;;9.60;8.52;;;39.40;1.00;;;;;;5080432;28;20199;-77
2022/08/19 12:10:32;;;;;;;9.60;8.70;;;38.10;1.00;;;;;;5086424;28;20202;-78
2022/08/19 12:12:57;;;;;;;9.60;8.18;;;36.90;1.00;;;;;;5086687;28;20278;-77
2022/08/19 12:15:23;;;;;;;20.25;8.02;;;35.80;1.00;;;;;;5083879;28;20254;-77
2022/08/19 12:17:48;;;;;;;9.10;8.15;;;34.90;1.00;;;;;;5079079;28;20194;-77
2022/08/19 12:20:16;;;;;;;9.23;8.00;;;34.50;1.00;;;;;;5089030;28;20187;-77
2022/08/19 12:22:42;;;;;;;10.65;8.70;;;36.30;1.00;;;;;;5087545;28;20281;-78
2022/08/19 12:25:10;;;;;;;9.32;8.43;;;38.00;1.00;;;;;;5094794;28;20548;-78
2022/08/19 12:27:36;;;;;;;8.10;7.30;;;38.70;1.00;;;;;;5092511;28;20654;-77
2022/08/19 12:30:06;;;;;;;8.45;7.60;;;38.60;1.00;;;;;;5076649;28;20241;-78
2022/08/19 12:32:32;;;;;;;8.52;7.72;;;37.60;1.00;;;;;;5082725;28;20198;-77
2022/08/19 12:34:57;;;;;;;8.60;7.63;;;36.40;1.00;;;;;;5089813;28;20187;-77
2022/08/19 12:37:23;;;;;;;8.50;7.70;;;35.50;1.00;;;;;;5082577;28;20426;-77
2022/08/19 12:39:48;;;;;;;9.82;7.93;;;36.80;1.00;;;;;;5086791;28;20225;-76
2022/08/19 12:42:14;;;;;;;9.27;7.57;;;37.10;1.00;;;;;;5082370;28;20191;-76
2022/08/19 12:44:42;;;;;;;9.10;7.75;;;36.70;1.00;;;;;;5081944;28;20217;-76
2022/08/19 12:47:09;;;;;;;8.68;7.88;;;37.40;1.00;;;;;;5072020;28;20234;-76
2022/08/19 12:49:38;;;;;;;10.18;7.60;;;38.60;1.00;;;;;;5070943;28;20278;-77
2022/08/19 12:52:04;;;;;;;8.50;7.80;;;39.50;1.00;;;;;;5073495;28;20650;-77
2022/08/19 12:54:30;;;;;;;8.82;8.00;;;38.50;1.00;;;;;;5089500;28;20203;-76
2022/08/19 12:56:56;;;;;;;7.70;6.90;;;37.60;1.00;;;;;;5086707;28;20179;-77
2022/08/19 12:59:22;;;;;;;8.20;7.40;;;38.60;1.00;;;;;;5086627;28;20210;-77
2022/08/19 13:01:47;;;;;;;8.20;7.40;;;39.40;1.00;;;;;;5071152;28;20199;-77
2022/08/19 13:04:13;;;;;;;9.55;7.40;;;39.80;1.00;;;;;;5083679;28;20238;-76
2022/08/19 13:06:38;;;;;;;8.00;6.95;;;39.90;1.00;;;;;;5087619;28;20884;-76
2022/08/19 13:09:04;;;;;;;7.47;6.78;;;40.10;1.00;;;;;;5086326;28;20238;-75